Terminal Aerodrome Forecast
Issued by NWS

Home | Current Version | Previous Version | Text Only | Print | Product List | Glossary On
Versions: 1 2 3 4 5 6 7 8 9 10 11 12 13 14 15 16 17 18 19 20 21 22 23 24 25 26 27 28 29 30 31 32 33 34 35 36 37 38
000
FTUS43 KIND 160319 AAB
TAFLAF
TAF AMD
KLAF 160319Z 1603/1624 24005KT 4SM BR SCT015 BKN040
      TEMPO 1603/1605 2SM BR BKN015
     FM160700 VRB03KT P6SM VCSH OVC009
     FM161600 22006KT P6SM VCSH BKN012
     FM161800 24006KT P6SM BKN021
     FM162000 25006KT P6SM BKN045
     AMD LTD TO CLD VIS AND WIND TIL 161300=

USA.gov is the U.S. government's official web portal to all federal, state and local government web resources and services.